• Join FlightAware (Why Join?)
  • Login
  • US Flag 
04:00PM EST


 

Airport Tracker/Info


-or-


 

Live Flight TrackerFlight Track Log ✈ EJA929 ✈ 02-Sep-2013 ✈ KSBP - KSBA

Flight Track Log - Related Links

Times and Time Zones

All times are in EDT time to prevent confusion due to time zone crossing. See the EJA929 flight status page for this flight to view local times or setup timezone preferences in your user account.

Time Position Orientation Groundspeed Altitude Reporting Facility
EDT Latitude Longitude Course Direction KTS MPH feet Rate Location/Type
04:28PM 35.2900 -120.7408 303° West 234 269 6,200  Level Los Angeles Center
04:29PM 35.2636 -120.7881 236° Southwest 220 253 7,000 360 Climbing Los Angeles Center
04:30PM 35.2081 -120.7397 145° Southeast 243 280 7,000  Level Los Angeles Center
04:31PM 35.1428 -120.6764 142° Southeast 271 312 7,000  Level Los Angeles Center
04:32PM 35.0794 -120.6122 140° Southeast 278 320 7,000  Level Los Angeles Center
04:33PM 35.0275 -120.5639 143° Southeast 275 316 7,000  Level Los Angeles Center
04:34PM 34.9569 -120.4969 142° Southeast 269 310 7,000  Level Los Angeles Center
04:35PM 34.8872 -120.4297 142° Southeast 270 311 7,000  Level Los Angeles Center
04:36PM 34.8356 -120.3806 142° Southeast 268 308 7,000  Level Los Angeles Center
04:37PM 34.7733 -120.3219 142° Southeast 269 310 7,000  Level Los Angeles Center
04:38PM 34.7161 -120.2669 142° Southeast 269 310 7,000  Level Los Angeles Center
04:39PM 34.6536 -120.2086 142° Southeast 269 310 7,000  Level Los Angeles Center
04:40PM 34.5925 -120.1472 140° Southeast 267 307 7,000  Level Los Angeles Center
04:41PM 34.5397 -120.1014 144° Southeast 268 308 7,000 -300 Level Los Angeles Center
04:42PM 34.4822 -120.0469 142° Southeast 268 308 6,500 -960 Descending Los Angeles Center
04:43PM 34.4203 -119.9911 143° Southeast 264 304 5,100 -780 Descending Los Angeles Center
04:44PM 34.3731 -119.9439 140° Southeast 233 268 5,000 -60 Descending Los Angeles Center
04:45PM 34.3419 -119.8808 121° Southeast 223 257 5,000 -60 Level Los Angeles Center
04:46PM 34.3317 -119.8061 99° East 217 250 4,900 -480 Descending Los Angeles Center
04:47PM 34.3494 -119.7403 72° East 213 245 4,100 -900 Descending Los Angeles Center
04:48PM 34.3831 -119.6878 52° Northeast 210 242 3,100 -900 Descending Los Angeles Center
04:49PM 34.3822 -119.7506 269° West 189 217 2,200 -900 Descending Los Angeles Center
04:50PM 34.4022 -119.7833 306° West 145 167 1,200 -780 Descending Los Angeles Center
04:51PM 34.4283 -119.8033 328° Northwest 131 151 700 -480 Descending Los Angeles Center
04:52PM 34.4358 -119.8542 280° West 137 158 200 -420 Descending Los Angeles Center